sensor_id;sensor_type;location;lat;lon;timestamp;P1;durP1;ratioP1;P2;durP2;ratioP2
14592;SDS011;7383;52.354;9.756;2023-04-23T00:00:48;2.83;;;2.63;;
14592;SDS011;7383;52.354;9.756;2023-04-23T00:03:18;2.80;;;2.60;;
14592;SDS011;7383;52.354;9.756;2023-04-23T00:05:51;2.88;;;2.67;;
14592;SDS011;7383;52.354;9.756;2023-04-23T00:08:19;2.47;;;2.38;;
14592;SDS011;7383;52.354;9.756;2023-04-23T00:10:47;2.20;;;2.10;;
14592;SDS011;7383;52.354;9.756;2023-04-23T00:13:14;2.40;;;2.30;;
14592;SDS011;7383;52.354;9.756;2023-04-23T00:15:41;2.50;;;2.40;;
14592;SDS011;7383;52.354;9.756;2023-04-23T00:18:10;2.30;;;2.20;;
14592;SDS011;7383;52.354;9.756;2023-04-23T00:20:38;2.08;;;1.98;;
14592;SDS011;7383;52.354;9.756;2023-04-23T00:23:09;2.38;;;2.28;;
14592;SDS011;7383;52.354;9.756;2023-04-23T00:25:36;2.38;;;2.28;;
14592;SDS011;7383;52.354;9.756;2023-04-23T00:28:02;2.38;;;2.28;;
14592;SDS011;7383;52.354;9.756;2023-04-23T00:30:31;2.30;;;2.10;;
14592;SDS011;7383;52.354;9.756;2023-04-23T00:33:12;2.20;;;2.10;;
14592;SDS011;7383;52.354;9.756;2023-04-23T00:35:39;2.05;;;1.95;;
14592;SDS011;7383;52.354;9.756;2023-04-23T00:38:07;2.17;;;2.05;;
14592;SDS011;7383;52.354;9.756;2023-04-23T00:40:34;2.75;;;2.10;;
14592;SDS011;7383;52.354;9.756;2023-04-23T00:43:01;2.10;;;2.00;;
14592;SDS011;7383;52.354;9.756;2023-04-23T00:45:28;2.33;;;2.22;;
14592;SDS011;7383;52.354;9.756;2023-04-23T00:47:55;2.40;;;2.30;;
14592;SDS011;7383;52.354;9.756;2023-04-23T00:50:24;2.60;;;2.40;;
14592;SDS011;7383;52.354;9.756;2023-04-23T00:52:51;2.33;;;2.20;;
14592;SDS011;7383;52.354;9.756;2023-04-23T00:55:19;2.50;;;2.40;;
14592;SDS011;7383;52.354;9.756;2023-04-23T00:57:46;2.90;;;2.70;;
14592;SDS011;7383;52.354;9.756;2023-04-23T01:00:13;2.80;;;2.58;;
14592;SDS011;7383;52.354;9.756;2023-04-23T01:02:40;2.50;;;2.40;;
14592;SDS011;7383;52.354;9.756;2023-04-23T01:05:08;2.88;;;2.67;;
14592;SDS011;7383;52.354;9.756;2023-04-23T01:07:42;2.40;;;2.30;;
14592;SDS011;7383;52.354;9.756;2023-04-23T01:10:10;2.72;;;2.53;;
14592;SDS011;7383;52.354;9.756;2023-04-23T01:12:39;2.78;;;2.58;;
14592;SDS011;7383;52.354;9.756;2023-04-23T01:15:06;2.65;;;2.45;;
14592;SDS011;7383;52.354;9.756;2023-04-23T01:17:33;2.30;;;2.20;;
14592;SDS011;7383;52.354;9.756;2023-04-23T01:20:01;2.42;;;2.30;;
14592;SDS011;7383;52.354;9.756;2023-04-23T01:22:31;2.65;;;2.45;;
14592;SDS011;7383;52.354;9.756;2023-04-23T01:24:59;3.67;;;3.40;;
14592;SDS011;7383;52.354;9.756;2023-04-23T01:27:26;5.25;;;4.85;;
14592;SDS011;7383;52.354;9.756;2023-04-23T01:29:52;4.28;;;3.97;;
14592;SDS011;7383;52.354;9.756;2023-04-23T01:32:20;4.95;;;4.65;;
14592;SDS011;7383;52.354;9.756;2023-04-23T01:34:47;4.47;;;4.18;;
14592;SDS011;7383;52.354;9.756;2023-04-23T01:37:19;4.47;;;4.18;;
14592;SDS011;7383;52.354;9.756;2023-04-23T01:39:51;4.60;;;4.30;;
14592;SDS011;7383;52.354;9.756;2023-04-23T01:42:17;4.70;;;4.40;;
14592;SDS011;7383;52.354;9.756;2023-04-23T01:44:45;4.95;;;4.65;;
14592;SDS011;7383;52.354;9.756;2023-04-23T01:47:11;4.72;;;4.43;;
14592;SDS011;7383;52.354;9.756;2023-04-23T01:49:40;4.43;;;4.15;;
14592;SDS011;7383;52.354;9.756;2023-04-23T01:52:06;5.90;;;5.50;;
14592;SDS011;7383;52.354;9.756;2023-04-23T01:54:33;5.50;;;5.10;;
14592;SDS011;7383;52.354;9.756;2023-04-23T01:57:01;5.68;;;5.28;;
14592;SDS011;7383;52.354;9.756;2023-04-23T01:59:28;5.75;;;5.35;;
14592;SDS011;7383;52.354;9.756;2023-04-23T02:01:54;5.78;;;5.38;;
14592;SDS011;7383;52.354;9.756;2023-04-23T02:04:21;5.60;;;5.22;;
14592;SDS011;7383;52.354;9.756;2023-04-23T02:06:48;6.80;;;6.30;;
14592;SDS011;7383;52.354;9.756;2023-04-23T02:09:16;5.88;;;5.47;;
14592;SDS011;7383;52.354;9.756;2023-04-23T02:11:43;5.90;;;5.50;;
14592;SDS011;7383;52.354;9.756;2023-04-23T02:14:11;6.32;;;5.93;;
14592;SDS011;7383;52.354;9.756;2023-04-23T02:16:39;8.75;;;8.07;;
14592;SDS011;7383;52.354;9.756;2023-04-23T02:19:05;10.38;;;9.48;;
14592;SDS011;7383;52.354;9.756;2023-04-23T02:21:32;9.60;;;8.82;;
14592;SDS011;7383;52.354;9.756;2023-04-23T02:23:59;10.30;;;9.50;;
14592;SDS011;7383;52.354;9.756;2023-04-23T02:26:26;8.85;;;8.15;;
14592;SDS011;7383;52.354;9.756;2023-04-23T02:28:53;11.02;;;10.02;;
14592;SDS011;7383;52.354;9.756;2023-04-23T02:31:21;10.43;;;9.60;;
14592;SDS011;7383;52.354;9.756;2023-04-23T02:33:48;10.40;;;9.50;;
14592;SDS011;7383;52.354;9.756;2023-04-23T02:36:15;10.68;;;9.77;;
14592;SDS011;7383;52.354;9.756;2023-04-23T02:38:42;11.23;;;10.23;;
14592;SDS011;7383;52.354;9.756;2023-04-23T02:41:13;10.85;;;9.95;;
14592;SDS011;7383;52.354;9.756;2023-04-23T02:43:40;11.48;;;10.52;;
14592;SDS011;7383;52.354;9.756;2023-04-23T02:46:06;10.93;;;10.02;;
14592;SDS011;7383;52.354;9.756;2023-04-23T02:48:36;12.40;;;11.30;;
14592;SDS011;7383;52.354;9.756;2023-04-23T02:51:04;11.23;;;10.27;;
14592;SDS011;7383;52.354;9.756;2023-04-23T02:53:31;11.85;;;10.85;;
14592;SDS011;7383;52.354;9.756;2023-04-23T02:55:58;11.32;;;10.43;;
14592;SDS011;7383;52.354;9.756;2023-04-23T02:58:25;12.70;;;11.55;;
14592;SDS011;7383;52.354;9.756;2023-04-23T03:00:52;13.23;;;11.98;;
14592;SDS011;7383;52.354;9.756;2023-04-23T03:03:19;13.00;;;11.82;;
14592;SDS011;7383;52.354;9.756;2023-04-23T03:05:47;12.68;;;11.57;;
14592;SDS011;7383;52.354;9.756;2023-04-23T03:08:15;12.88;;;11.77;;
14592;SDS011;7383;52.354;9.756;2023-04-23T03:10:42;12.48;;;11.30;;
14592;SDS011;7383;52.354;9.756;2023-04-23T03:13:09;11.82;;;10.82;;
14592;SDS011;7383;52.354;9.756;2023-04-23T03:15:36;12.57;;;11.50;;
14592;SDS011;7383;52.354;9.756;2023-04-23T03:18:04;12.48;;;11.35;;
14592;SDS011;7383;52.354;9.756;2023-04-23T03:20:32;12.30;;;11.20;;
14592;SDS011;7383;52.354;9.756;2023-04-23T03:23:01;12.27;;;11.18;;
14592;SDS011;7383;52.354;9.756;2023-04-23T03:25:31;11.40;;;10.40;;
14592;SDS011;7383;52.354;9.756;2023-04-23T03:27:58;12.38;;;11.30;;
14592;SDS011;7383;52.354;9.756;2023-04-23T03:30:25;14.35;;;13.07;;
14592;SDS011;7383;52.354;9.756;2023-04-23T03:32:54;12.93;;;11.82;;
14592;SDS011;7383;52.354;9.756;2023-04-23T03:35:23;13.07;;;11.90;;
14592;SDS011;7383;52.354;9.756;2023-04-23T03:37:50;13.65;;;12.45;;
14592;SDS011;7383;52.354;9.756;2023-04-23T03:40:20;13.25;;;12.05;;
14592;SDS011;7383;52.354;9.756;2023-04-23T03:42:51;12.73;;;11.63;;
14592;SDS011;7383;52.354;9.756;2023-04-23T03:45:19;12.90;;;11.80;;
14592;SDS011;7383;52.354;9.756;2023-04-23T03:47:46;13.43;;;12.23;;
14592;SDS011;7383;52.354;9.756;2023-04-23T03:50:13;12.95;;;11.85;;
14592;SDS011;7383;52.354;9.756;2023-04-23T03:52:41;12.02;;;11.02;;
14592;SDS011;7383;52.354;9.756;2023-04-23T03:55:08;13.25;;;11.95;;
14592;SDS011;7383;52.354;9.756;2023-04-23T03:57:39;13.02;;;11.90;;
14592;SDS011;7383;52.354;9.756;2023-04-23T04:00:06;12.63;;;11.50;;
14592;SDS011;7383;52.354;9.756;2023-04-23T04:02:35;13.15;;;12.05;;
14592;SDS011;7383;52.354;9.756;2023-04-23T04:05:02;13.07;;;12.00;;
14592;SDS011;7383;52.354;9.756;2023-04-23T04:07:29;14.73;;;13.52;;
14592;SDS011;7383;52.354;9.756;2023-04-23T04:09:56;13.48;;;12.30;;
14592;SDS011;7383;52.354;9.756;2023-04-23T04:12:22;13.95;;;12.75;;
14592;SDS011;7383;52.354;9.756;2023-04-23T04:14:51;15.50;;;14.13;;
14592;SDS011;7383;52.354;9.756;2023-04-23T04:17:19;15.88;;;14.45;;
14592;SDS011;7383;52.354;9.756;2023-04-23T04:19:45;16.58;;;15.10;;
14592;SDS011;7383;52.354;9.756;2023-04-23T04:22:16;17.60;;;15.93;;
14592;SDS011;7383;52.354;9.756;2023-04-23T04:24:43;18.90;;;17.05;;
14592;SDS011;7383;52.354;9.756;2023-04-23T04:27:11;17.90;;;16.23;;
14592;SDS011;7383;52.354;9.756;2023-04-23T04:29:38;19.00;;;17.15;;
14592;SDS011;7383;52.354;9.756;2023-04-23T04:32:06;18.95;;;17.08;;
14592;SDS011;7383;52.354;9.756;2023-04-23T04:34:33;16.17;;;14.65;;
14592;SDS011;7383;52.354;9.756;2023-04-23T04:37:02;16.55;;;14.95;;
14592;SDS011;7383;52.354;9.756;2023-04-23T04:39:31;16.50;;;14.98;;
14592;SDS011;7383;52.354;9.756;2023-04-23T04:41:58;16.73;;;15.15;;
14592;SDS011;7383;52.354;9.756;2023-04-23T04:44:27;17.90;;;16.10;;
14592;SDS011;7383;52.354;9.756;2023-04-23T04:46:54;16.42;;;14.80;;
14592;SDS011;7383;52.354;9.756;2023-04-23T04:49:22;14.77;;;13.43;;
14592;SDS011;7383;52.354;9.756;2023-04-23T04:51:49;15.57;;;14.18;;
14592;SDS011;7383;52.354;9.756;2023-04-23T04:54:18;17.30;;;15.70;;
14592;SDS011;7383;52.354;9.756;2023-04-23T04:56:45;17.38;;;15.68;;
14592;SDS011;7383;52.354;9.756;2023-04-23T04:59:12;17.25;;;15.48;;
14592;SDS011;7383;52.354;9.756;2023-04-23T05:01:46;17.55;;;15.85;;
14592;SDS011;7383;52.354;9.756;2023-04-23T05:04:13;18.90;;;17.00;;
14592;SDS011;7383;52.354;9.756;2023-04-23T05:06:41;17.75;;;16.02;;
14592;SDS011;7383;52.354;9.756;2023-04-23T05:09:08;17.80;;;16.08;;
14592;SDS011;7383;52.354;9.756;2023-04-23T05:11:36;17.33;;;15.63;;
14592;SDS011;7383;52.354;9.756;2023-04-23T05:14:03;16.75;;;15.15;;
14592;SDS011;7383;52.354;9.756;2023-04-23T05:16:30;16.17;;;14.63;;
14592;SDS011;7383;52.354;9.756;2023-04-23T05:18:56;16.90;;;15.23;;
14592;SDS011;7383;52.354;9.756;2023-04-23T05:21:23;15.90;;;14.40;;
14592;SDS011;7383;52.354;9.756;2023-04-23T05:23:52;16.65;;;15.05;;
14592;SDS011;7383;52.354;9.756;2023-04-23T05:26:20;16.67;;;15.18;;
14592;SDS011;7383;52.354;9.756;2023-04-23T05:28:46;16.17;;;14.68;;
14592;SDS011;7383;52.354;9.756;2023-04-23T05:31:13;16.48;;;14.88;;
14592;SDS011;7383;52.354;9.756;2023-04-23T05:33:39;16.92;;;15.23;;
14592;SDS011;7383;52.354;9.756;2023-04-23T05:36:08;17.08;;;15.48;;
14592;SDS011;7383;52.354;9.756;2023-04-23T05:38:35;15.85;;;14.43;;
14592;SDS011;7383;52.354;9.756;2023-04-23T05:41:03;17.00;;;15.38;;
14592;SDS011;7383;52.354;9.756;2023-04-23T05:43:30;19.15;;;17.15;;
14592;SDS011;7383;52.354;9.756;2023-04-23T05:45:56;17.30;;;15.60;;
14592;SDS011;7383;52.354;9.756;2023-04-23T05:48:23;15.98;;;14.48;;
14592;SDS011;7383;52.354;9.756;2023-04-23T05:50:49;19.23;;;17.30;;
14592;SDS011;7383;52.354;9.756;2023-04-23T05:53:16;18.20;;;16.50;;
14592;SDS011;7383;52.354;9.756;2023-04-23T05:55:42;18.02;;;16.30;;
14592;SDS011;7383;52.354;9.756;2023-04-23T05:58:10;17.33;;;15.65;;
14592;SDS011;7383;52.354;9.756;2023-04-23T06:00:37;17.25;;;15.55;;
14592;SDS011;7383;52.354;9.756;2023-04-23T06:03:04;16.92;;;15.27;;
14592;SDS011;7383;52.354;9.756;2023-04-23T06:05:31;17.30;;;15.60;;
14592;SDS011;7383;52.354;9.756;2023-04-23T06:07:57;17.52;;;15.73;;
14592;SDS011;7383;52.354;9.756;2023-04-23T06:10:24;17.55;;;15.85;;
14592;SDS011;7383;52.354;9.756;2023-04-23T06:12:51;17.80;;;16.10;;
14592;SDS011;7383;52.354;9.756;2023-04-23T06:15:20;19.10;;;17.25;;
14592;SDS011;7383;52.354;9.756;2023-04-23T06:17:56;18.05;;;16.15;;
14592;SDS011;7383;52.354;9.756;2023-04-23T06:20:26;18.58;;;16.67;;
14592;SDS011;7383;52.354;9.756;2023-04-23T06:22:52;17.02;;;15.43;;
14592;SDS011;7383;52.354;9.756;2023-04-23T06:25:19;17.25;;;15.63;;
14592;SDS011;7383;52.354;9.756;2023-04-23T06:27:46;15.63;;;14.13;;
14592;SDS011;7383;52.354;9.756;2023-04-23T06:30:12;15.93;;;14.38;;
14592;SDS011;7383;52.354;9.756;2023-04-23T06:32:43;15.98;;;14.43;;
14592;SDS011;7383;52.354;9.756;2023-04-23T06:35:10;16.08;;;14.48;;
14592;SDS011;7383;52.354;9.756;2023-04-23T06:37:36;18.88;;;17.08;;
14592;SDS011;7383;52.354;9.756;2023-04-23T06:40:03;19.27;;;17.38;;
14592;SDS011;7383;52.354;9.756;2023-04-23T06:42:30;15.85;;;14.35;;
14592;SDS011;7383;52.354;9.756;2023-04-23T06:44:57;24.08;;;21.88;;
14592;SDS011;7383;52.354;9.756;2023-04-23T06:47:29;18.35;;;16.63;;
14592;SDS011;7383;52.354;9.756;2023-04-23T06:49:58;17.48;;;15.88;;
14592;SDS011;7383;52.354;9.756;2023-04-23T06:52:29;17.02;;;15.40;;
14592;SDS011;7383;52.354;9.756;2023-04-23T06:54:56;17.23;;;15.70;;
14592;SDS011;7383;52.354;9.756;2023-04-23T06:57:23;16.08;;;14.57;;
14592;SDS011;7383;52.354;9.756;2023-04-23T06:59:51;16.20;;;14.70;;
14592;SDS011;7383;52.354;9.756;2023-04-23T07:02:18;17.67;;;16.02;;
14592;SDS011;7383;52.354;9.756;2023-04-23T07:04:45;15.50;;;14.05;;
14592;SDS011;7383;52.354;9.756;2023-04-23T07:07:13;15.57;;;14.07;;
14592;SDS011;7383;52.354;9.756;2023-04-23T07:09:41;17.10;;;15.50;;
14592;SDS011;7383;52.354;9.756;2023-04-23T07:12:08;16.08;;;14.57;;
14592;SDS011;7383;52.354;9.756;2023-04-23T07:14:36;16.17;;;14.48;;
14592;SDS011;7383;52.354;9.756;2023-04-23T07:17:03;16.60;;;15.10;;
14592;SDS011;7383;52.354;9.756;2023-04-23T07:19:29;17.17;;;15.55;;
14592;SDS011;7383;52.354;9.756;2023-04-23T07:21:56;16.73;;;15.23;;
14592;SDS011;7383;52.354;9.756;2023-04-23T07:24:26;17.70;;;15.95;;
14592;SDS011;7383;52.354;9.756;2023-04-23T07:26:53;18.38;;;16.58;;
14592;SDS011;7383;52.354;9.756;2023-04-23T07:29:22;17.75;;;16.05;;
14592;SDS011;7383;52.354;9.756;2023-04-23T07:31:49;16.23;;;14.73;;
14592;SDS011;7383;52.354;9.756;2023-04-23T07:34:18;18.67;;;16.90;;
14592;SDS011;7383;52.354;9.756;2023-04-23T07:36:47;17.35;;;15.75;;
14592;SDS011;7383;52.354;9.756;2023-04-23T07:39:16;20.60;;;18.60;;
14592;SDS011;7383;52.354;9.756;2023-04-23T07:41:47;18.23;;;16.42;;
14592;SDS011;7383;52.354;9.756;2023-04-23T07:44:19;16.95;;;15.27;;
14592;SDS011;7383;52.354;9.756;2023-04-23T07:47:03;19.27;;;17.38;;
14592;SDS011;7383;52.354;9.756;2023-04-23T07:49:30;18.55;;;16.80;;
14592;SDS011;7383;52.354;9.756;2023-04-23T07:52:01;19.15;;;17.33;;
14592;SDS011;7383;52.354;9.756;2023-04-23T07:54:32;15.77;;;14.27;;
14592;SDS011;7383;52.354;9.756;2023-04-23T07:57:12;15.27;;;13.77;;
14592;SDS011;7383;52.354;9.756;2023-04-23T07:59:40;17.20;;;15.50;;
14592;SDS011;7383;52.354;9.756;2023-04-23T08:02:09;18.60;;;16.80;;
14592;SDS011;7383;52.354;9.756;2023-04-23T08:04:49;14.05;;;12.73;;
14592;SDS011;7383;52.354;9.756;2023-04-23T08:07:16;15.15;;;13.65;;
14592;SDS011;7383;52.354;9.756;2023-04-23T08:09:43;15.07;;;13.68;;
14592;SDS011;7383;52.354;9.756;2023-04-23T08:12:11;15.05;;;13.65;;
14592;SDS011;7383;52.354;9.756;2023-04-23T08:14:41;15.93;;;14.32;;
14592;SDS011;7383;52.354;9.756;2023-04-23T08:17:08;14.88;;;13.43;;
14592;SDS011;7383;52.354;9.756;2023-04-23T08:19:34;14.30;;;12.93;;
14592;SDS011;7383;52.354;9.756;2023-04-23T09:29:22;9.40;;;8.60;;
14592;SDS011;7383;52.354;9.756;2023-04-23T09:31:53;9.15;;;8.30;;
14592;SDS011;7383;52.354;9.756;2023-04-23T09:34:35;11.25;;;10.25;;
14592;SDS011;7383;52.354;9.756;2023-04-23T09:37:05;10.82;;;9.90;;
14592;SDS011;7383;52.354;9.756;2023-04-23T09:39:40;10.32;;;9.43;;
14592;SDS011;7383;52.354;9.756;2023-04-23T09:42:07;8.45;;;7.70;;
14592;SDS011;7383;52.354;9.756;2023-04-23T09:44:40;10.18;;;9.10;;
14592;SDS011;7383;52.354;9.756;2023-04-23T09:47:10;8.90;;;8.10;;
14592;SDS011;7383;52.354;9.756;2023-04-23T09:49:46;9.30;;;8.50;;
14592;SDS011;7383;52.354;9.756;2023-04-23T09:52:13;7.75;;;7.10;;
14592;SDS011;7383;52.354;9.756;2023-04-23T09:54:41;9.23;;;8.43;;
14592;SDS011;7383;52.354;9.756;2023-04-23T09:57:10;9.43;;;8.57;;
14592;SDS011;7383;52.354;9.756;2023-04-23T09:59:42;7.82;;;7.22;;
14592;SDS011;7383;52.354;9.756;2023-04-23T10:02:09;7.45;;;6.85;;
14592;SDS011;7383;52.354;9.756;2023-04-23T10:04:36;8.18;;;7.47;;
14592;SDS011;7383;52.354;9.756;2023-04-23T10:07:04;8.00;;;7.38;;
14592;SDS011;7383;52.354;9.756;2023-04-23T10:09:32;7.65;;;7.05;;
14592;SDS011;7383;52.354;9.756;2023-04-23T10:12:00;6.68;;;6.15;;
14592;SDS011;7383;52.354;9.756;2023-04-23T10:14:29;9.13;;;8.23;;
14592;SDS011;7383;52.354;9.756;2023-04-23T10:16:58;7.18;;;6.65;;
14592;SDS011;7383;52.354;9.756;2023-04-23T10:19:30;7.30;;;6.60;;
14592;SDS011;7383;52.354;9.756;2023-04-23T10:21:58;8.05;;;7.43;;
14592;SDS011;7383;52.354;9.756;2023-04-23T11:18:59;4.63;;;4.22;;
14592;SDS011;7383;52.354;9.756;2023-04-23T11:24:21;4.00;;;3.70;;
14592;SDS011;7383;52.354;9.756;2023-04-23T11:26:49;4.53;;;4.22;;
14592;SDS011;7383;52.354;9.756;2023-04-23T11:29:17;4.60;;;4.20;;
14592;SDS011;7383;52.354;9.756;2023-04-23T11:31:46;3.55;;;3.35;;
14592;SDS011;7383;52.354;9.756;2023-04-23T11:34:14;3.95;;;3.75;;
14592;SDS011;7383;52.354;9.756;2023-04-23T11:36:43;4.18;;;3.97;;
14592;SDS011;7383;52.354;9.756;2023-04-23T11:39:09;4.80;;;4.40;;
14592;SDS011;7383;52.354;9.756;2023-04-23T11:41:37;4.50;;;4.20;;
14592;SDS011;7383;52.354;9.756;2023-04-23T11:44:04;4.55;;;4.25;;
14592;SDS011;7383;52.354;9.756;2023-04-23T11:46:30;3.65;;;3.40;;
14592;SDS011;7383;52.354;9.756;2023-04-23T11:48:58;3.70;;;3.45;;
14592;SDS011;7383;52.354;9.756;2023-04-23T11:51:27;4.30;;;4.00;;
14592;SDS011;7383;52.354;9.756;2023-04-23T11:54:00;4.13;;;3.80;;
14592;SDS011;7383;52.354;9.756;2023-04-23T11:56:28;3.03;;;2.83;;
14592;SDS011;7383;52.354;9.756;2023-04-23T11:58:58;3.20;;;3.00;;
14592;SDS011;7383;52.354;9.756;2023-04-23T12:01:37;2.90;;;2.70;;
14592;SDS011;7383;52.354;9.756;2023-04-23T12:04:08;2.88;;;2.72;;
14592;SDS011;7383;52.354;9.756;2023-04-23T12:06:37;3.03;;;2.83;;
14592;SDS011;7383;52.354;9.756;2023-04-23T13:08:35;2.20;;;2.10;;
14592;SDS011;7383;52.354;9.756;2023-04-23T13:11:09;1.67;;;1.58;;
14592;SDS011;7383;52.354;9.756;2023-04-23T13:13:35;2.25;;;2.15;;
14592;SDS011;7383;52.354;9.756;2023-04-23T13:16:02;2.10;;;2.00;;
14592;SDS011;7383;52.354;9.756;2023-04-23T13:18:29;2.10;;;2.00;;
14592;SDS011;7383;52.354;9.756;2023-04-23T13:20:55;2.20;;;2.10;;
14592;SDS011;7383;52.354;9.756;2023-04-23T13:23:21;2.13;;;2.03;;
14592;SDS011;7383;52.354;9.756;2023-04-23T13:25:49;2.10;;;2.00;;
14592;SDS011;7383;52.354;9.756;2023-04-23T13:28:16;2.38;;;2.25;;
14592;SDS011;7383;52.354;9.756;2023-04-23T13:30:45;2.38;;;2.28;;
14592;SDS011;7383;52.354;9.756;2023-04-23T13:33:12;2.22;;;2.13;;
14592;SDS011;7383;52.354;9.756;2023-04-23T13:35:38;2.30;;;2.10;;
14592;SDS011;7383;52.354;9.756;2023-04-23T13:38:05;1.90;;;1.80;;
14592;SDS011;7383;52.354;9.756;2023-04-23T13:40:31;2.10;;;2.00;;
14592;SDS011;7383;52.354;9.756;2023-04-23T13:43:00;2.03;;;1.75;;
14592;SDS011;7383;52.354;9.756;2023-04-23T13:45:27;1.80;;;1.70;;
14592;SDS011;7383;52.354;9.756;2023-04-23T13:47:53;1.50;;;1.40;;
14592;SDS011;7383;52.354;9.756;2023-04-23T13:50:20;1.20;;;1.10;;
14592;SDS011;7383;52.354;9.756;2023-04-23T13:52:46;1.08;;;1.00;;
14592;SDS011;7383;52.354;9.756;2023-04-23T13:55:13;1.17;;;1.17;;
14592;SDS011;7383;52.354;9.756;2023-04-23T13:57:39;1.25;;;1.10;;
14592;SDS011;7383;52.354;9.756;2023-04-23T14:00:08;0.85;;;0.85;;
14592;SDS011;7383;52.354;9.756;2023-04-23T14:02:36;1.00;;;1.00;;
14592;SDS011;7383;52.354;9.756;2023-04-23T14:05:03;0.90;;;0.90;;
14592;SDS011;7383;52.354;9.756;2023-04-23T14:07:30;0.80;;;0.80;;
14592;SDS011;7383;52.354;9.756;2023-04-23T14:09:57;0.90;;;0.90;;
14592;SDS011;7383;52.354;9.756;2023-04-23T14:12:23;1.10;;;1.00;;
14592;SDS011;7383;52.354;9.756;2023-04-23T14:14:50;0.88;;;0.88;;
14592;SDS011;7383;52.354;9.756;2023-04-23T14:17:18;1.00;;;1.00;;
14592;SDS011;7383;52.354;9.756;2023-04-23T14:19:45;1.13;;;1.05;;
14592;SDS011;7383;52.354;9.756;2023-04-23T14:22:11;1.20;;;1.20;;
14592;SDS011;7383;52.354;9.756;2023-04-23T14:24:39;1.10;;;1.10;;
14592;SDS011;7383;52.354;9.756;2023-04-23T14:27:10;1.63;;;1.55;;
14592;SDS011;7383;52.354;9.756;2023-04-23T14:29:39;1.00;;;1.00;;
14592;SDS011;7383;52.354;9.756;2023-04-23T14:32:06;1.50;;;1.40;;
14592;SDS011;7383;52.354;9.756;2023-04-23T14:34:34;1.40;;;1.30;;
14592;SDS011;7383;52.354;9.756;2023-04-23T14:37:00;1.08;;;1.08;;
14592;SDS011;7383;52.354;9.756;2023-04-23T14:39:27;1.45;;;0.88;;
14592;SDS011;7383;52.354;9.756;2023-04-23T14:41:54;0.90;;;0.90;;
14592;SDS011;7383;52.354;9.756;2023-04-23T14:44:21;1.00;;;1.00;;
14592;SDS011;7383;52.354;9.756;2023-04-23T14:46:50;1.00;;;1.00;;
14592;SDS011;7383;52.354;9.756;2023-04-23T14:49:16;1.02;;;1.02;;
14592;SDS011;7383;52.354;9.756;2023-04-23T14:51:46;1.27;;;1.25;;
14592;SDS011;7383;52.354;9.756;2023-04-23T14:54:13;0.90;;;0.90;;
14592;SDS011;7383;52.354;9.756;2023-04-23T14:56:40;1.10;;;1.00;;
14592;SDS011;7383;52.354;9.756;2023-04-23T14:59:07;1.05;;;1.05;;
14592;SDS011;7383;52.354;9.756;2023-04-23T15:01:33;0.82;;;0.82;;
14592;SDS011;7383;52.354;9.756;2023-04-23T15:04:00;1.02;;;1.02;;
14592;SDS011;7383;52.354;9.756;2023-04-23T15:06:26;0.90;;;0.90;;
14592;SDS011;7383;52.354;9.756;2023-04-23T15:08:54;0.90;;;0.90;;
14592;SDS011;7383;52.354;9.756;2023-04-23T15:11:20;1.00;;;1.00;;
14592;SDS011;7383;52.354;9.756;2023-04-23T15:13:54;0.70;;;0.70;;
14592;SDS011;7383;52.354;9.756;2023-04-23T15:16:27;0.90;;;0.90;;
14592;SDS011;7383;52.354;9.756;2023-04-23T15:18:55;1.08;;;1.08;;
14592;SDS011;7383;52.354;9.756;2023-04-23T15:21:22;1.10;;;1.10;;
14592;SDS011;7383;52.354;9.756;2023-04-23T15:23:49;0.80;;;0.80;;
14592;SDS011;7383;52.354;9.756;2023-04-23T15:26:17;0.80;;;0.80;;
14592;SDS011;7383;52.354;9.756;2023-04-23T15:28:44;0.77;;;0.77;;
14592;SDS011;7383;52.354;9.756;2023-04-23T15:31:11;0.85;;;0.82;;
14592;SDS011;7383;52.354;9.756;2023-04-23T15:33:37;0.70;;;0.70;;
14592;SDS011;7383;52.354;9.756;2023-04-23T15:36:05;0.80;;;0.80;;
14592;SDS011;7383;52.354;9.756;2023-04-23T15:38:31;0.90;;;0.90;;
14592;SDS011;7383;52.354;9.756;2023-04-23T15:40:58;0.80;;;0.80;;
14592;SDS011;7383;52.354;9.756;2023-04-23T15:43:26;0.73;;;0.73;;
14592;SDS011;7383;52.354;9.756;2023-04-23T15:45:53;0.88;;;0.88;;
14592;SDS011;7383;52.354;9.756;2023-04-23T15:48:22;1.20;;;1.20;;
14592;SDS011;7383;52.354;9.756;2023-04-23T15:50:49;0.88;;;0.88;;
14592;SDS011;7383;52.354;9.756;2023-04-23T15:53:16;1.13;;;1.13;;
14592;SDS011;7383;52.354;9.756;2023-04-23T15:55:44;1.10;;;1.10;;
14592;SDS011;7383;52.354;9.756;2023-04-23T15:58:10;1.10;;;1.10;;
14592;SDS011;7383;52.354;9.756;2023-04-23T16:00:38;1.20;;;1.20;;
14592;SDS011;7383;52.354;9.756;2023-04-23T16:03:05;0.90;;;0.90;;
14592;SDS011;7383;52.354;9.756;2023-04-23T16:05:31;1.30;;;1.20;;
14592;SDS011;7383;52.354;9.756;2023-04-23T16:07:59;0.98;;;0.98;;
14592;SDS011;7383;52.354;9.756;2023-04-23T16:10:26;0.90;;;0.90;;
14592;SDS011;7383;52.354;9.756;2023-04-23T16:12:55;1.05;;;1.05;;
14592;SDS011;7383;52.354;9.756;2023-04-23T16:15:22;0.98;;;0.98;;
14592;SDS011;7383;52.354;9.756;2023-04-23T16:17:50;1.10;;;1.10;;
14592;SDS011;7383;52.354;9.756;2023-04-23T16:20:17;1.05;;;1.05;;
14592;SDS011;7383;52.354;9.756;2023-04-23T16:22:44;1.10;;;1.10;;
14592;SDS011;7383;52.354;9.756;2023-04-23T16:25:10;1.35;;;1.35;;
14592;SDS011;7383;52.354;9.756;2023-04-23T16:27:36;1.60;;;1.50;;
14592;SDS011;7383;52.354;9.756;2023-04-23T16:30:03;1.38;;;1.38;;
14592;SDS011;7383;52.354;9.756;2023-04-23T16:32:30;1.67;;;1.60;;
14592;SDS011;7383;52.354;9.756;2023-04-23T16:34:58;1.20;;;1.20;;
14592;SDS011;7383;52.354;9.756;2023-04-23T16:37:24;1.33;;;1.33;;
14592;SDS011;7383;52.354;9.756;2023-04-23T16:39:51;1.50;;;1.50;;
14592;SDS011;7383;52.354;9.756;2023-04-23T16:42:17;1.17;;;1.17;;
14592;SDS011;7383;52.354;9.756;2023-04-23T16:44:45;0.98;;;0.98;;
14592;SDS011;7383;52.354;9.756;2023-04-23T16:47:12;1.23;;;1.23;;
14592;SDS011;7383;52.354;9.756;2023-04-23T16:49:38;1.50;;;1.40;;
14592;SDS011;7383;52.354;9.756;2023-04-23T16:52:06;1.10;;;1.10;;
14592;SDS011;7383;52.354;9.756;2023-04-23T16:54:33;1.73;;;1.63;;
14592;SDS011;7383;52.354;9.756;2023-04-23T16:57:02;1.60;;;1.60;;
14592;SDS011;7383;52.354;9.756;2023-04-23T16:59:31;1.75;;;1.65;;
14592;SDS011;7383;52.354;9.756;2023-04-23T17:01:57;1.20;;;1.20;;
14592;SDS011;7383;52.354;9.756;2023-04-23T17:04:24;1.27;;;1.27;;
14592;SDS011;7383;52.354;9.756;2023-04-23T17:06:50;1.23;;;1.23;;
14592;SDS011;7383;52.354;9.756;2023-04-23T17:09:18;1.17;;;1.17;;
14592;SDS011;7383;52.354;9.756;2023-04-23T17:11:45;1.00;;;1.00;;
14592;SDS011;7383;52.354;9.756;2023-04-23T17:14:11;1.50;;;1.40;;
14592;SDS011;7383;52.354;9.756;2023-04-23T17:16:38;1.20;;;1.20;;
14592;SDS011;7383;52.354;9.756;2023-04-23T17:19:04;1.10;;;1.10;;
14592;SDS011;7383;52.354;9.756;2023-04-23T17:21:30;1.13;;;1.13;;
14592;SDS011;7383;52.354;9.756;2023-04-23T17:23:59;1.20;;;1.20;;
14592;SDS011;7383;52.354;9.756;2023-04-23T17:26:27;1.20;;;1.20;;
14592;SDS011;7383;52.354;9.756;2023-04-23T17:28:54;1.40;;;1.40;;
14592;SDS011;7383;52.354;9.756;2023-04-23T17:31:20;1.38;;;1.38;;
14592;SDS011;7383;52.354;9.756;2023-04-23T17:33:47;1.25;;;1.25;;
14592;SDS011;7383;52.354;9.756;2023-04-23T17:36:14;1.25;;;1.25;;
14592;SDS011;7383;52.354;9.756;2023-04-23T17:38:41;1.63;;;1.58;;
14592;SDS011;7383;52.354;9.756;2023-04-23T17:41:07;1.33;;;1.33;;
14592;SDS011;7383;52.354;9.756;2023-04-23T17:43:35;1.55;;;1.45;;
14592;SDS011;7383;52.354;9.756;2023-04-23T17:46:01;1.33;;;1.30;;
14592;SDS011;7383;52.354;9.756;2023-04-23T17:48:28;1.70;;;1.60;;
14592;SDS011;7383;52.354;9.756;2023-04-23T17:50:54;1.60;;;1.60;;
14592;SDS011;7383;52.354;9.756;2023-04-23T17:53:21;1.52;;;1.48;;
14592;SDS011;7383;52.354;9.756;2023-04-23T17:55:47;1.38;;;1.27;;
14592;SDS011;7383;52.354;9.756;2023-04-23T17:58:14;1.40;;;1.33;;